sensor_id;sensor_type;location;lat;lon;timestamp;P1;durP1;ratioP1;P2;durP2;ratioP2
80677;SDS011;70042;52.494;5.502;2023-07-31T00:00:11;2.05;;;0.90;;
80677;SDS011;70042;52.494;5.502;2023-07-31T00:02:37;1.25;;;0.65;;
80677;SDS011;70042;52.494;5.502;2023-07-31T00:05:03;2.13;;;0.70;;
80677;SDS011;70042;52.494;5.502;2023-07-31T00:07:29;1.88;;;0.90;;
80677;SDS011;70042;52.494;5.502;2023-07-31T00:12:21;1.33;;;0.60;;
80677;SDS011;70042;52.494;5.502;2023-07-31T00:17:13;1.37;;;0.60;;
80677;SDS011;70042;52.494;5.502;2023-07-31T00:19:38;2.13;;;0.75;;
80677;SDS011;70042;52.494;5.502;2023-07-31T00:22:04;1.55;;;0.90;;
80677;SDS011;70042;52.494;5.502;2023-07-31T00:24:29;1.45;;;0.75;;
80677;SDS011;70042;52.494;5.502;2023-07-31T00:29:20;1.40;;;0.80;;
80677;SDS011;70042;52.494;5.502;2023-07-31T00:34:11;1.17;;;0.70;;
80677;SDS011;70042;52.494;5.502;2023-07-31T00:39:02;1.00;;;0.50;;
80677;SDS011;70042;52.494;5.502;2023-07-31T00:43:52;0.90;;;0.40;;
80677;SDS011;70042;52.494;5.502;2023-07-31T00:46:18;1.60;;;0.70;;
80677;SDS011;70042;52.494;5.502;2023-07-31T00:48:44;1.05;;;0.60;;
80677;SDS011;70042;52.494;5.502;2023-07-31T00:53:35;1.38;;;0.77;;
80677;SDS011;70042;52.494;5.502;2023-07-31T00:56:01;2.17;;;0.60;;
80677;SDS011;70042;52.494;5.502;2023-07-31T00:58:27;2.03;;;0.80;;
80677;SDS011;70042;52.494;5.502;2023-07-31T01:00:52;2.58;;;0.70;;
80677;SDS011;70042;52.494;5.502;2023-07-31T01:03:18;3.10;;;0.73;;
80677;SDS011;70042;52.494;5.502;2023-07-31T01:08:44;1.48;;;0.70;;
80677;SDS011;70042;52.494;5.502;2023-07-31T01:11:27;1.38;;;0.52;;
80677;SDS011;70042;52.494;5.502;2023-07-31T01:13:56;1.45;;;0.50;;
80677;SDS011;70042;52.494;5.502;2023-07-31T01:16:22;1.13;;;0.60;;
80677;SDS011;70042;52.494;5.502;2023-07-31T01:18:48;1.15;;;0.50;;
80677;SDS011;70042;52.494;5.502;2023-07-31T01:24:39;1.95;;;0.90;;
80677;SDS011;70042;52.494;5.502;2023-07-31T01:32:42;1.52;;;0.70;;
80677;SDS011;70042;52.494;5.502;2023-07-31T01:35:09;2.10;;;0.70;;
80677;SDS011;70042;52.494;5.502;2023-07-31T01:37:35;1.77;;;0.60;;
80677;SDS011;70042;52.494;5.502;2023-07-31T01:40:00;1.23;;;0.70;;
80677;SDS011;70042;52.494;5.502;2023-07-31T01:42:26;1.65;;;0.80;;
80677;SDS011;70042;52.494;5.502;2023-07-31T01:44:51;1.38;;;0.57;;
80677;SDS011;70042;52.494;5.502;2023-07-31T01:47:17;1.50;;;0.80;;
80677;SDS011;70042;52.494;5.502;2023-07-31T01:49:42;1.90;;;0.77;;
80677;SDS011;70042;52.494;5.502;2023-07-31T01:52:08;1.48;;;0.77;;
80677;SDS011;70042;52.494;5.502;2023-07-31T01:54:33;1.23;;;0.60;;
80677;SDS011;70042;52.494;5.502;2023-07-31T01:56:59;1.30;;;0.55;;
80677;SDS011;70042;52.494;5.502;2023-07-31T02:01:50;1.65;;;0.77;;
80677;SDS011;70042;52.494;5.502;2023-07-31T02:06:41;1.23;;;0.80;;
80677;SDS011;70042;52.494;5.502;2023-07-31T02:11:31;1.13;;;0.63;;
80677;SDS011;70042;52.494;5.502;2023-07-31T02:13:57;1.30;;;0.70;;
80677;SDS011;70042;52.494;5.502;2023-07-31T02:18:47;1.50;;;0.77;;
80677;SDS011;70042;52.494;5.502;2023-07-31T02:21:13;1.42;;;0.73;;
80677;SDS011;70042;52.494;5.502;2023-07-31T02:23:38;1.90;;;0.90;;
80677;SDS011;70042;52.494;5.502;2023-07-31T02:28:29;2.47;;;0.90;;
80677;SDS011;70042;52.494;5.502;2023-07-31T02:30:55;1.35;;;0.75;;
80677;SDS011;70042;52.494;5.502;2023-07-31T02:35:46;1.48;;;0.60;;
80677;SDS011;70042;52.494;5.502;2023-07-31T02:40:36;1.77;;;0.90;;
80677;SDS011;70042;52.494;5.502;2023-07-31T02:45:27;2.85;;;0.70;;
80677;SDS011;70042;52.494;5.502;2023-07-31T02:47:52;1.05;;;0.65;;
80677;SDS011;70042;52.494;5.502;2023-07-31T02:52:43;1.70;;;0.80;;
80677;SDS011;70042;52.494;5.502;2023-07-31T02:57:34;1.27;;;0.60;;
80677;SDS011;70042;52.494;5.502;2023-07-31T03:02:25;1.33;;;0.77;;
80677;SDS011;70042;52.494;5.502;2023-07-31T03:04:50;1.83;;;1.27;;
80677;SDS011;70042;52.494;5.502;2023-07-31T03:07:16;1.67;;;0.98;;
80677;SDS011;70042;52.494;5.502;2023-07-31T03:12:07;1.58;;;0.70;;
80677;SDS011;70042;52.494;5.502;2023-07-31T03:14:33;2.28;;;1.13;;
80677;SDS011;70042;52.494;5.502;2023-07-31T03:16:59;1.98;;;0.88;;
80677;SDS011;70042;52.494;5.502;2023-07-31T03:19:24;2.35;;;0.90;;
80677;SDS011;70042;52.494;5.502;2023-07-31T03:21:50;1.60;;;0.90;;
80677;SDS011;70042;52.494;5.502;2023-07-31T03:24:15;1.63;;;0.90;;
80677;SDS011;70042;52.494;5.502;2023-07-31T03:26:41;2.03;;;0.70;;
80677;SDS011;70042;52.494;5.502;2023-07-31T03:29:07;2.13;;;0.98;;
80677;SDS011;70042;52.494;5.502;2023-07-31T03:31:32;3.42;;;1.23;;
80677;SDS011;70042;52.494;5.502;2023-07-31T03:33:58;2.40;;;1.00;;
80677;SDS011;70042;52.494;5.502;2023-07-31T03:38:49;3.03;;;1.10;;
80677;SDS011;70042;52.494;5.502;2023-07-31T03:41:16;3.05;;;1.00;;
80677;SDS011;70042;52.494;5.502;2023-07-31T03:43:41;2.15;;;0.70;;
80677;SDS011;70042;52.494;5.502;2023-07-31T03:48:32;1.83;;;0.70;;
80677;SDS011;70042;52.494;5.502;2023-07-31T03:50:57;2.58;;;1.05;;
80677;SDS011;70042;52.494;5.502;2023-07-31T03:53:23;3.40;;;1.10;;
80677;SDS011;70042;52.494;5.502;2023-07-31T03:55:48;1.88;;;0.77;;
80677;SDS011;70042;52.494;5.502;2023-07-31T03:58:14;2.20;;;0.70;;
80677;SDS011;70042;52.494;5.502;2023-07-31T04:00:40;2.97;;;1.05;;
80677;SDS011;70042;52.494;5.502;2023-07-31T04:05:31;2.60;;;1.20;;
80677;SDS011;70042;52.494;5.502;2023-07-31T04:07:57;3.67;;;1.10;;
80677;SDS011;70042;52.494;5.502;2023-07-31T04:10:23;4.15;;;1.23;;
80677;SDS011;70042;52.494;5.502;2023-07-31T04:12:48;2.80;;;1.02;;
80677;SDS011;70042;52.494;5.502;2023-07-31T04:15:14;2.58;;;1.20;;
80677;SDS011;70042;52.494;5.502;2023-07-31T04:20:05;3.17;;;1.17;;
80677;SDS011;70042;52.494;5.502;2023-07-31T04:22:30;1.98;;;1.08;;
80677;SDS011;70042;52.494;5.502;2023-07-31T04:24:56;3.55;;;1.05;;
80677;SDS011;70042;52.494;5.502;2023-07-31T04:27:21;2.47;;;1.20;;
80677;SDS011;70042;52.494;5.502;2023-07-31T04:32:12;2.17;;;1.20;;
80677;SDS011;70042;52.494;5.502;2023-07-31T04:34:40;2.83;;;0.98;;
80677;SDS011;70042;52.494;5.502;2023-07-31T04:37:06;2.58;;;1.23;;
80677;SDS011;70042;52.494;5.502;2023-07-31T04:39:31;3.03;;;1.52;;
80677;SDS011;70042;52.494;5.502;2023-07-31T04:44:22;4.90;;;1.30;;
80677;SDS011;70042;52.494;5.502;2023-07-31T04:46:47;2.33;;;1.10;;
80677;SDS011;70042;52.494;5.502;2023-07-31T04:51:38;3.60;;;1.30;;
80677;SDS011;70042;52.494;5.502;2023-07-31T04:56:29;2.78;;;1.25;;
80677;SDS011;70042;52.494;5.502;2023-07-31T04:58:54;2.95;;;1.20;;
80677;SDS011;70042;52.494;5.502;2023-07-31T05:01:20;2.28;;;1.38;;
80677;SDS011;70042;52.494;5.502;2023-07-31T05:06:10;1.40;;;0.93;;
80677;SDS011;70042;52.494;5.502;2023-07-31T05:08:37;2.47;;;0.90;;
80677;SDS011;70042;52.494;5.502;2023-07-31T05:11:02;2.70;;;1.27;;
80677;SDS011;70042;52.494;5.502;2023-07-31T05:15:53;3.53;;;1.50;;
80677;SDS011;70042;52.494;5.502;2023-07-31T05:18:19;2.28;;;1.33;;
80677;SDS011;70042;52.494;5.502;2023-07-31T05:23:09;3.23;;;1.30;;
80677;SDS011;70042;52.494;5.502;2023-07-31T05:28:00;1.73;;;0.87;;
80677;SDS011;70042;52.494;5.502;2023-07-31T05:32:51;4.77;;;1.60;;
80677;SDS011;70042;52.494;5.502;2023-07-31T05:35:17;3.40;;;1.27;;
80677;SDS011;70042;52.494;5.502;2023-07-31T05:40:07;3.50;;;1.40;;
80677;SDS011;70042;52.494;5.502;2023-07-31T05:42:33;3.30;;;1.40;;
80677;SDS011;70042;52.494;5.502;2023-07-31T05:44:59;4.32;;;1.63;;
80677;SDS011;70042;52.494;5.502;2023-07-31T05:47:25;3.33;;;1.63;;
80677;SDS011;70042;52.494;5.502;2023-07-31T05:52:18;4.00;;;1.35;;
80677;SDS011;70042;52.494;5.502;2023-07-31T05:57:09;3.93;;;1.67;;
80677;SDS011;70042;52.494;5.502;2023-07-31T05:59:37;4.32;;;2.17;;
80677;SDS011;70042;52.494;5.502;2023-07-31T06:02:03;3.47;;;1.27;;
80677;SDS011;70042;52.494;5.502;2023-07-31T06:04:28;4.63;;;2.35;;
80677;SDS011;70042;52.494;5.502;2023-07-31T06:06:54;5.00;;;1.95;;
80677;SDS011;70042;52.494;5.502;2023-07-31T06:09:19;2.92;;;1.60;;
80677;SDS011;70042;52.494;5.502;2023-07-31T06:11:47;4.85;;;1.70;;
80677;SDS011;70042;52.494;5.502;2023-07-31T06:14:13;3.50;;;1.48;;
80677;SDS011;70042;52.494;5.502;2023-07-31T06:16:38;3.58;;;1.40;;
80677;SDS011;70042;52.494;5.502;2023-07-31T06:21:29;3.78;;;1.60;;
80677;SDS011;70042;52.494;5.502;2023-07-31T06:23:56;3.13;;;1.60;;
80677;SDS011;70042;52.494;5.502;2023-07-31T06:26:21;5.70;;;1.83;;
80677;SDS011;70042;52.494;5.502;2023-07-31T06:28:47;6.43;;;1.90;;
80677;SDS011;70042;52.494;5.502;2023-07-31T06:31:12;7.65;;;2.33;;
80677;SDS011;70042;52.494;5.502;2023-07-31T06:33:37;3.70;;;1.67;;
80677;SDS011;70042;52.494;5.502;2023-07-31T06:36:03;5.40;;;1.73;;
80677;SDS011;70042;52.494;5.502;2023-07-31T06:38:28;5.55;;;1.85;;
80677;SDS011;70042;52.494;5.502;2023-07-31T06:40:54;3.65;;;1.83;;
80677;SDS011;70042;52.494;5.502;2023-07-31T06:45:45;4.68;;;1.63;;
80677;SDS011;70042;52.494;5.502;2023-07-31T06:48:11;2.28;;;1.40;;
80677;SDS011;70042;52.494;5.502;2023-07-31T06:50:36;4.07;;;1.70;;
80677;SDS011;70042;52.494;5.502;2023-07-31T06:55:27;1.83;;;1.40;;
80677;SDS011;70042;52.494;5.502;2023-07-31T06:57:54;3.67;;;1.58;;
80677;SDS011;70042;52.494;5.502;2023-07-31T07:00:20;5.97;;;1.83;;
80677;SDS011;70042;52.494;5.502;2023-07-31T07:02:47;3.75;;;1.70;;
80677;SDS011;70042;52.494;5.502;2023-07-31T07:07:40;3.78;;;1.55;;
80677;SDS011;70042;52.494;5.502;2023-07-31T07:10:07;2.35;;;1.48;;
80677;SDS011;70042;52.494;5.502;2023-07-31T07:12:34;4.15;;;1.40;;
80677;SDS011;70042;52.494;5.502;2023-07-31T07:17:27;2.55;;;1.40;;
80677;SDS011;70042;52.494;5.502;2023-07-31T07:19:53;3.85;;;1.55;;
80677;SDS011;70042;52.494;5.502;2023-07-31T07:22:20;3.55;;;1.60;;
80677;SDS011;70042;52.494;5.502;2023-07-31T07:24:45;4.07;;;1.38;;
80677;SDS011;70042;52.494;5.502;2023-07-31T07:27:11;2.72;;;1.52;;
80677;SDS011;70042;52.494;5.502;2023-07-31T07:29:37;3.10;;;1.40;;
80677;SDS011;70042;52.494;5.502;2023-07-31T07:32:03;3.40;;;1.25;;
80677;SDS011;70042;52.494;5.502;2023-07-31T07:34:29;2.35;;;1.30;;
80677;SDS011;70042;52.494;5.502;2023-07-31T07:39:20;3.67;;;1.42;;
80677;SDS011;70042;52.494;5.502;2023-07-31T07:44:12;2.75;;;1.60;;
80677;SDS011;70042;52.494;5.502;2023-07-31T07:46:38;3.47;;;1.20;;
80677;SDS011;70042;52.494;5.502;2023-07-31T07:49:03;3.53;;;1.40;;
80677;SDS011;70042;52.494;5.502;2023-07-31T07:53:56;2.53;;;1.25;;
80677;SDS011;70042;52.494;5.502;2023-07-31T07:56:23;2.28;;;1.23;;
80677;SDS011;70042;52.494;5.502;2023-07-31T07:58:50;2.55;;;1.45;;
80677;SDS011;70042;52.494;5.502;2023-07-31T08:01:16;2.33;;;1.15;;
80677;SDS011;70042;52.494;5.502;2023-07-31T08:03:42;2.88;;;0.93;;
80677;SDS011;70042;52.494;5.502;2023-07-31T08:06:08;3.13;;;1.13;;
80677;SDS011;70042;52.494;5.502;2023-07-31T08:08:34;3.42;;;1.30;;
80677;SDS011;70042;52.494;5.502;2023-07-31T08:11:01;2.22;;;1.10;;
80677;SDS011;70042;52.494;5.502;2023-07-31T08:13:26;2.95;;;1.20;;
80677;SDS011;70042;52.494;5.502;2023-07-31T08:15:52;2.63;;;1.17;;
80677;SDS011;70042;52.494;5.502;2023-07-31T08:18:18;3.58;;;1.33;;
80677;SDS011;70042;52.494;5.502;2023-07-31T08:23:09;2.05;;;0.90;;
80677;SDS011;70042;52.494;5.502;2023-07-31T08:28:01;3.05;;;1.42;;
80677;SDS011;70042;52.494;5.502;2023-07-31T08:30:27;2.90;;;1.20;;
80677;SDS011;70042;52.494;5.502;2023-07-31T08:32:53;3.20;;;1.15;;
80677;SDS011;70042;52.494;5.502;2023-07-31T08:35:18;2.05;;;1.00;;
80677;SDS011;70042;52.494;5.502;2023-07-31T08:37:44;4.38;;;1.40;;
80677;SDS011;70042;52.494;5.502;2023-07-31T08:40:10;3.50;;;1.13;;
80677;SDS011;70042;52.494;5.502;2023-07-31T08:42:46;3.17;;;1.35;;
80677;SDS011;70042;52.494;5.502;2023-07-31T08:45:15;2.47;;;0.95;;
80677;SDS011;70042;52.494;5.502;2023-07-31T08:47:44;3.20;;;1.10;;
80677;SDS011;70042;52.494;5.502;2023-07-31T08:50:12;2.25;;;0.85;;
80677;SDS011;70042;52.494;5.502;2023-07-31T08:52:38;2.13;;;1.00;;
80677;SDS011;70042;52.494;5.502;2023-07-31T08:55:05;3.42;;;0.90;;
80677;SDS011;70042;52.494;5.502;2023-07-31T08:57:31;2.85;;;1.00;;
80677;SDS011;70042;52.494;5.502;2023-07-31T08:59:58;2.28;;;1.00;;
80677;SDS011;70042;52.494;5.502;2023-07-31T09:02:24;2.15;;;1.10;;
80677;SDS011;70042;52.494;5.502;2023-07-31T09:05:03;1.80;;;0.90;;
80677;SDS011;70042;52.494;5.502;2023-07-31T09:07:30;2.80;;;1.10;;
80677;SDS011;70042;52.494;5.502;2023-07-31T09:09:59;2.25;;;1.17;;
80677;SDS011;70042;52.494;5.502;2023-07-31T09:12:25;2.08;;;1.00;;
80677;SDS011;70042;52.494;5.502;2023-07-31T09:14:51;1.50;;;1.05;;
80677;SDS011;70042;52.494;5.502;2023-07-31T09:19:53;1.38;;;0.55;;
80677;SDS011;70042;52.494;5.502;2023-07-31T09:22:28;1.73;;;0.88;;
80677;SDS011;70042;52.494;5.502;2023-07-31T09:25:02;2.55;;;0.80;;
80677;SDS011;70042;52.494;5.502;2023-07-31T09:27:46;3.33;;;1.00;;
80677;SDS011;70042;52.494;5.502;2023-07-31T09:30:12;1.50;;;0.95;;
80677;SDS011;70042;52.494;5.502;2023-07-31T09:32:38;1.90;;;0.80;;
80677;SDS011;70042;52.494;5.502;2023-07-31T09:37:43;2.25;;;0.75;;
80677;SDS011;70042;52.494;5.502;2023-07-31T09:40:09;2.42;;;0.85;;
80677;SDS011;70042;52.494;5.502;2023-07-31T09:42:49;1.58;;;0.90;;
80677;SDS011;70042;52.494;5.502;2023-07-31T09:45:15;1.45;;;0.80;;
80677;SDS011;70042;52.494;5.502;2023-07-31T09:50:11;2.33;;;0.80;;
80677;SDS011;70042;52.494;5.502;2023-07-31T09:52:38;1.95;;;0.90;;
80677;SDS011;70042;52.494;5.502;2023-07-31T09:55:04;1.50;;;0.70;;
80677;SDS011;70042;52.494;5.502;2023-07-31T09:59:56;1.42;;;0.60;;
80677;SDS011;70042;52.494;5.502;2023-07-31T10:02:22;1.52;;;0.63;;
80677;SDS011;70042;52.494;5.502;2023-07-31T10:04:51;1.58;;;0.80;;
80677;SDS011;70042;52.494;5.502;2023-07-31T10:07:20;1.48;;;0.52;;
80677;SDS011;70042;52.494;5.502;2023-07-31T10:09:48;1.67;;;0.95;;
80677;SDS011;70042;52.494;5.502;2023-07-31T10:12:14;1.95;;;0.90;;
80677;SDS011;70042;52.494;5.502;2023-07-31T10:14:42;1.40;;;0.73;;
80677;SDS011;70042;52.494;5.502;2023-07-31T10:17:08;1.58;;;0.68;;
80677;SDS011;70042;52.494;5.502;2023-07-31T10:19:34;2.03;;;0.80;;
80677;SDS011;70042;52.494;5.502;2023-07-31T10:22:02;1.15;;;0.60;;
80677;SDS011;70042;52.494;5.502;2023-07-31T10:24:29;1.58;;;0.50;;
80677;SDS011;70042;52.494;5.502;2023-07-31T10:26:57;1.85;;;0.70;;
80677;SDS011;70042;52.494;5.502;2023-07-31T10:29:25;1.98;;;0.70;;
80677;SDS011;70042;52.494;5.502;2023-07-31T10:31:52;1.90;;;0.80;;
80677;SDS011;70042;52.494;5.502;2023-07-31T10:34:21;1.48;;;0.60;;
80677;SDS011;70042;52.494;5.502;2023-07-31T10:36:47;1.35;;;0.70;;
80677;SDS011;70042;52.494;5.502;2023-07-31T10:39:56;1.08;;;0.40;;
80677;SDS011;70042;52.494;5.502;2023-07-31T10:42:12;1.13;;;0.68;;
80677;SDS011;70042;52.494;5.502;2023-07-31T10:44:43;1.60;;;0.90;;
80677;SDS011;70042;52.494;5.502;2023-07-31T10:47:13;1.23;;;0.52;;
80677;SDS011;70042;52.494;5.502;2023-07-31T10:49:44;1.13;;;0.55;;
80677;SDS011;70042;52.494;5.502;2023-07-31T10:52:12;0.98;;;0.63;;
80677;SDS011;70042;52.494;5.502;2023-07-31T10:54:39;1.10;;;0.73;;
80677;SDS011;70042;52.494;5.502;2023-07-31T10:57:18;1.33;;;0.68;;
80677;SDS011;70042;52.494;5.502;2023-07-31T10:59:47;1.60;;;0.60;;
80677;SDS011;70042;52.494;5.502;2023-07-31T11:02:27;2.15;;;0.80;;
80677;SDS011;70042;52.494;5.502;2023-07-31T11:05:07;1.42;;;0.63;;
80677;SDS011;70042;52.494;5.502;2023-07-31T11:07:48;1.45;;;0.77;;
80677;SDS011;70042;52.494;5.502;2023-07-31T11:10:16;1.23;;;0.60;;
80677;SDS011;70042;52.494;5.502;2023-07-31T11:12:43;1.17;;;0.50;;
80677;SDS011;70042;52.494;5.502;2023-07-31T11:15:10;1.45;;;0.77;;
80677;SDS011;70042;52.494;5.502;2023-07-31T11:17:40;1.98;;;0.60;;
80677;SDS011;70042;52.494;5.502;2023-07-31T11:20:07;1.30;;;0.80;;
80677;SDS011;70042;52.494;5.502;2023-07-31T11:22:34;1.48;;;0.45;;
80677;SDS011;70042;52.494;5.502;2023-07-31T11:25:02;1.67;;;0.63;;
80677;SDS011;70042;52.494;5.502;2023-07-31T11:27:29;1.17;;;0.68;;
80677;SDS011;70042;52.494;5.502;2023-07-31T11:30:00;1.92;;;0.50;;
80677;SDS011;70042;52.494;5.502;2023-07-31T11:32:27;1.65;;;0.82;;
80677;SDS011;70042;52.494;5.502;2023-07-31T11:34:55;1.48;;;0.60;;
80677;SDS011;70042;52.494;5.502;2023-07-31T11:37:21;1.35;;;0.70;;
80677;SDS011;70042;52.494;5.502;2023-07-31T11:40:02;1.10;;;0.45;;
80677;SDS011;70042;52.494;5.502;2023-07-31T11:42:28;1.35;;;0.63;;
80677;SDS011;70042;52.494;5.502;2023-07-31T11:44:54;1.77;;;0.70;;
80677;SDS011;70042;52.494;5.502;2023-07-31T11:49:45;2.78;;;0.77;;
80677;SDS011;70042;52.494;5.502;2023-07-31T11:52:11;1.13;;;0.47;;
80677;SDS011;70042;52.494;5.502;2023-07-31T11:54:38;0.80;;;0.50;;
80677;SDS011;70042;52.494;5.502;2023-07-31T11:57:05;0.90;;;0.32;;
80677;SDS011;70042;52.494;5.502;2023-07-31T11:59:31;1.15;;;0.50;;
80677;SDS011;70042;52.494;5.502;2023-07-31T12:01:57;1.42;;;0.60;;
80677;SDS011;70042;52.494;5.502;2023-07-31T12:06:49;1.30;;;0.57;;
80677;SDS011;70042;52.494;5.502;2023-07-31T12:09:17;0.95;;;0.50;;
80677;SDS011;70042;52.494;5.502;2023-07-31T12:11:43;1.17;;;0.68;;
80677;SDS011;70042;52.494;5.502;2023-07-31T12:14:25;1.23;;;0.60;;
80677;SDS011;70042;52.494;5.502;2023-07-31T12:16:58;1.38;;;0.68;;
80677;SDS011;70042;52.494;5.502;2023-07-31T12:19:25;1.30;;;0.70;;
80677;SDS011;70042;52.494;5.502;2023-07-31T12:21:54;0.88;;;0.52;;
80677;SDS011;70042;52.494;5.502;2023-07-31T12:24:20;2.10;;;0.70;;
80677;SDS011;70042;52.494;5.502;2023-07-31T12:26:48;2.33;;;0.60;;
80677;SDS011;70042;52.494;5.502;2023-07-31T12:29:14;1.80;;;0.60;;
80677;SDS011;70042;52.494;5.502;2023-07-31T12:31:43;2.92;;;0.95;;
80677;SDS011;70042;52.494;5.502;2023-07-31T12:34:18;0.77;;;0.38;;
80677;SDS011;70042;52.494;5.502;2023-07-31T12:36:46;1.33;;;0.60;;
80677;SDS011;70042;52.494;5.502;2023-07-31T12:39:14;1.95;;;0.68;;
80677;SDS011;70042;52.494;5.502;2023-07-31T12:41:43;1.50;;;0.75;;
80677;SDS011;70042;52.494;5.502;2023-07-31T12:44:08;0.90;;;0.40;;
80677;SDS011;70042;52.494;5.502;2023-07-31T12:46:35;1.65;;;0.88;;
80677;SDS011;70042;52.494;5.502;2023-07-31T12:49:00;1.00;;;0.60;;
80677;SDS011;70042;52.494;5.502;2023-07-31T12:51:27;2.00;;;0.70;;
80677;SDS011;70042;52.494;5.502;2023-07-31T12:53:53;3.33;;;0.65;;
80677;SDS011;70042;52.494;5.502;2023-07-31T12:56:18;2.33;;;0.80;;
80677;SDS011;70042;52.494;5.502;2023-07-31T12:58:44;1.27;;;0.80;;
80677;SDS011;70042;52.494;5.502;2023-07-31T13:01:09;1.60;;;0.80;;
80677;SDS011;70042;52.494;5.502;2023-07-31T13:06:00;1.08;;;0.55;;
80677;SDS011;70042;52.494;5.502;2023-07-31T13:08:26;0.85;;;0.60;;
80677;SDS011;70042;52.494;5.502;2023-07-31T13:13:17;2.85;;;0.60;;
80677;SDS011;70042;52.494;5.502;2023-07-31T13:15:43;1.08;;;0.50;;
80677;SDS011;70042;52.494;5.502;2023-07-31T13:18:10;0.80;;;0.43;;
80677;SDS011;70042;52.494;5.502;2023-07-31T13:20:35;1.33;;;0.57;;
80677;SDS011;70042;52.494;5.502;2023-07-31T13:23:01;1.05;;;0.60;;
80677;SDS011;70042;52.494;5.502;2023-07-31T13:27:52;1.30;;;0.50;;
80677;SDS011;70042;52.494;5.502;2023-07-31T13:32:43;2.08;;;0.57;;
80677;SDS011;70042;52.494;5.502;2023-07-31T13:37:36;1.90;;;0.80;;
80677;SDS011;70042;52.494;5.502;2023-07-31T13:40:03;1.27;;;0.50;;
80677;SDS011;70042;52.494;5.502;2023-07-31T13:42:30;1.67;;;0.70;;
80677;SDS011;70042;52.494;5.502;2023-07-31T13:44:56;1.83;;;0.60;;
80677;SDS011;70042;52.494;5.502;2023-07-31T13:47:22;1.20;;;0.50;;
80677;SDS011;70042;52.494;5.502;2023-07-31T13:49:47;1.42;;;0.50;;
80677;SDS011;70042;52.494;5.502;2023-07-31T13:54:38;2.07;;;0.63;;
80677;SDS011;70042;52.494;5.502;2023-07-31T13:59:29;2.38;;;0.70;;
80677;SDS011;70042;52.494;5.502;2023-07-31T14:01:55;1.10;;;0.65;;
80677;SDS011;70042;52.494;5.502;2023-07-31T14:06:46;1.98;;;0.60;;
80677;SDS011;70042;52.494;5.502;2023-07-31T14:09:13;1.00;;;0.50;;
80677;SDS011;70042;52.494;5.502;2023-07-31T14:11:39;1.52;;;0.45;;
80677;SDS011;70042;52.494;5.502;2023-07-31T14:16:30;1.40;;;0.60;;
80677;SDS011;70042;52.494;5.502;2023-07-31T14:21:24;1.35;;;0.40;;
80677;SDS011;70042;52.494;5.502;2023-07-31T14:23:51;1.77;;;0.50;;
80677;SDS011;70042;52.494;5.502;2023-07-31T14:26:16;1.83;;;0.52;;
80677;SDS011;70042;52.494;5.502;2023-07-31T14:31:07;1.38;;;0.50;;
80677;SDS011;70042;52.494;5.502;2023-07-31T14:33:33;1.58;;;0.50;;
80677;SDS011;70042;52.494;5.502;2023-07-31T14:35:59;1.27;;;0.50;;
80677;SDS011;70042;52.494;5.502;2023-07-31T14:38:25;2.60;;;0.60;;
80677;SDS011;70042;52.494;5.502;2023-07-31T14:40:51;1.48;;;0.75;;
80677;SDS011;70042;52.494;5.502;2023-07-31T14:43:16;1.85;;;0.60;;
80677;SDS011;70042;52.494;5.502;2023-07-31T14:45:42;1.23;;;0.70;;
80677;SDS011;70042;52.494;5.502;2023-07-31T14:50:33;3.72;;;0.52;;
80677;SDS011;70042;52.494;5.502;2023-07-31T14:55:25;1.55;;;0.60;;
80677;SDS011;70042;52.494;5.502;2023-07-31T14:57:50;2.47;;;0.57;;
80677;SDS011;70042;52.494;5.502;2023-07-31T15:00:16;2.95;;;0.85;;
80677;SDS011;70042;52.494;5.502;2023-07-31T15:05:07;1.63;;;0.63;;
80677;SDS011;70042;52.494;5.502;2023-07-31T15:09:59;2.08;;;0.93;;
80677;SDS011;70042;52.494;5.502;2023-07-31T15:14:51;1.40;;;0.70;;
80677;SDS011;70042;52.494;5.502;2023-07-31T15:17:17;1.90;;;0.90;;
80677;SDS011;70042;52.494;5.502;2023-07-31T15:19:43;42.13;;;20.00;;
80677;SDS011;70042;52.494;5.502;2023-07-31T15:22:08;55.90;;;26.83;;
80677;SDS011;70042;52.494;5.502;2023-07-31T15:26:59;45.45;;;24.88;;
80677;SDS011;70042;52.494;5.502;2023-07-31T15:29:27;31.63;;;18.20;;
80677;SDS011;70042;52.494;5.502;2023-07-31T15:31:54;23.23;;;13.90;;
80677;SDS011;70042;52.494;5.502;2023-07-31T15:36:45;23.45;;;10.07;;
80677;SDS011;70042;52.494;5.502;2023-07-31T15:41:36;16.33;;;9.23;;
80677;SDS011;70042;52.494;5.502;2023-07-31T15:44:03;17.27;;;8.43;;
80677;SDS011;70042;52.494;5.502;2023-07-31T15:46:29;17.15;;;9.13;;
80677;SDS011;70042;52.494;5.502;2023-07-31T15:48:55;14.27;;;7.80;;
80677;SDS011;70042;52.494;5.502;2023-07-31T15:53:46;16.83;;;7.22;;
80677;SDS011;70042;52.494;5.502;2023-07-31T15:58:37;12.13;;;6.15;;
80677;SDS011;70042;52.494;5.502;2023-07-31T16:03:28;13.35;;;5.35;;
80677;SDS011;70042;52.494;5.502;2023-07-31T16:08:19;12.55;;;6.00;;
80677;SDS011;70042;52.494;5.502;2023-07-31T16:13:10;7.38;;;3.97;;
80677;SDS011;70042;52.494;5.502;2023-07-31T16:15:36;10.32;;;4.43;;
80677;SDS011;70042;52.494;5.502;2023-07-31T16:18:01;11.68;;;3.95;;
80677;SDS011;70042;52.494;5.502;2023-07-31T16:20:27;7.28;;;3.90;;
80677;SDS011;70042;52.494;5.502;2023-07-31T16:25:19;11.75;;;3.47;;
80677;SDS011;70042;52.494;5.502;2023-07-31T16:27:45;9.50;;;3.40;;
80677;SDS011;70042;52.494;5.502;2023-07-31T16:32:36;7.03;;;3.35;;
80677;SDS011;70042;52.494;5.502;2023-07-31T16:37:28;5.13;;;2.63;;
80677;SDS011;70042;52.494;5.502;2023-07-31T16:39:53;8.52;;;3.28;;
80677;SDS011;70042;52.494;5.502;2023-07-31T16:42:20;10.20;;;3.35;;
80677;SDS011;70042;52.494;5.502;2023-07-31T16:44:47;7.60;;;2.92;;
80677;SDS011;70042;52.494;5.502;2023-07-31T16:47:14;8.43;;;3.38;;
80677;SDS011;70042;52.494;5.502;2023-07-31T16:49:39;6.63;;;3.03;;
80677;SDS011;70042;52.494;5.502;2023-07-31T16:52:05;6.72;;;3.05;;
80677;SDS011;70042;52.494;5.502;2023-07-31T16:54:31;6.53;;;2.47;;
80677;SDS011;70042;52.494;5.502;2023-07-31T16:56:58;7.22;;;2.63;;
80677;SDS011;70042;52.494;5.502;2023-07-31T16:59:24;5.90;;;2.60;;
80677;SDS011;70042;52.494;5.502;2023-07-31T17:04:16;4.18;;;2.15;;
80677;SDS011;70042;52.494;5.502;2023-07-31T17:06:42;5.25;;;2.40;;
80677;SDS011;70042;52.494;5.502;2023-07-31T17:09:08;4.80;;;1.98;;
80677;SDS011;70042;52.494;5.502;2023-07-31T17:11:34;4.57;;;2.00;;
80677;SDS011;70042;52.494;5.502;2023-07-31T17:14:00;5.45;;;2.17;;
80677;SDS011;70042;52.494;5.502;2023-07-31T17:16:28;6.97;;;2.65;;
80677;SDS011;70042;52.494;5.502;2023-07-31T17:18:55;5.63;;;2.08;;
80677;SDS011;70042;52.494;5.502;2023-07-31T17:21:21;4.70;;;2.47;;
80677;SDS011;70042;52.494;5.502;2023-07-31T17:23:47;5.05;;;2.20;;
80677;SDS011;70042;52.494;5.502;2023-07-31T17:26:13;3.72;;;1.60;;
80677;SDS011;70042;52.494;5.502;2023-07-31T17:28:42;6.85;;;1.90;;
80677;SDS011;70042;52.494;5.502;2023-07-31T17:31:09;3.78;;;1.70;;
80677;SDS011;70042;52.494;5.502;2023-07-31T17:36:01;5.45;;;1.45;;
80677;SDS011;70042;52.494;5.502;2023-07-31T17:38:27;3.22;;;1.92;;
80677;SDS011;70042;52.494;5.502;2023-07-31T17:40:53;4.13;;;1.60;;
80677;SDS011;70042;52.494;5.502;2023-07-31T17:43:22;4.18;;;1.30;;
80677;SDS011;70042;52.494;5.502;2023-07-31T17:45:47;4.75;;;1.70;;
80677;SDS011;70042;52.494;5.502;2023-07-31T17:48:13;4.43;;;1.40;;
80677;SDS011;70042;52.494;5.502;2023-07-31T17:53:05;4.32;;;1.50;;
80677;SDS011;70042;52.494;5.502;2023-07-31T17:55:30;3.00;;;1.40;;
80677;SDS011;70042;52.494;5.502;2023-07-31T18:00:21;3.92;;;1.38;;
80677;SDS011;70042;52.494;5.502;2023-07-31T18:05:13;5.32;;;1.33;;
80677;SDS011;70042;52.494;5.502;2023-07-31T18:10:05;3.83;;;1.60;;
80677;SDS011;70042;52.494;5.502;2023-07-31T18:12:33;2.90;;;1.17;;
80677;SDS011;70042;52.494;5.502;2023-07-31T18:15:01;3.65;;;1.05;;
80677;SDS011;70042;52.494;5.502;2023-07-31T18:17:29;3.13;;;1.38;;
80677;SDS011;70042;52.494;5.502;2023-07-31T18:19:56;3.45;;;1.35;;